createdAt,value
2023-04-18T00:00:14.182Z,22.34
2023-04-18T00:02:44.036Z,22.60
2023-04-18T00:05:12.673Z,22.81
2023-04-18T00:07:41.268Z,22.99
2023-04-18T00:10:09.266Z,22.76
2023-04-18T00:12:37.390Z,22.92
2023-04-18T00:15:07.377Z,22.98
2023-04-18T00:17:38.530Z,23.01
2023-04-18T00:20:10.396Z,23.03
2023-04-18T00:22:42.871Z,22.76
2023-04-18T00:25:11.377Z,23.04
2023-04-18T00:27:39.397Z,22.64
2023-04-18T00:30:08.631Z,22.74
2023-04-18T00:32:38.949Z,22.79
2023-04-18T00:35:07.129Z,22.70
2023-04-18T00:37:35.260Z,22.94
2023-04-18T00:40:05.550Z,23.08
2023-04-18T00:42:33.816Z,23.17
2023-04-18T00:45:01.850Z,22.98
2023-04-18T00:47:30.458Z,22.96
2023-04-18T00:49:59.411Z,23.12
2023-04-18T00:52:27.384Z,22.90
2023-04-18T00:54:55.543Z,22.94
2023-04-18T00:57:23.474Z,22.89
2023-04-18T00:59:54.019Z,22.84
2023-04-18T01:02:23.450Z,22.80
2023-04-18T01:04:52.262Z,22.85
2023-04-18T01:07:20.367Z,22.65
2023-04-18T01:09:48.573Z,22.58
2023-04-18T01:12:16.707Z,22.66
2023-04-18T01:14:45.091Z,22.25
2023-04-18T01:17:14.600Z,22.41
2023-04-18T01:19:46.862Z,22.59
2023-04-18T01:22:14.882Z,22.59
2023-04-18T01:24:42.816Z,22.53
2023-04-18T01:27:13.467Z,22.46
2023-04-18T01:29:41.470Z,22.36
2023-04-18T01:32:09.392Z,22.57
2023-04-18T01:34:38.159Z,22.34
2023-04-18T01:37:07.179Z,22.04
2023-04-18T01:39:35.921Z,22.15
2023-04-18T01:42:03.849Z,22.00
2023-04-18T01:44:32.997Z,22.42
2023-04-18T01:47:00.971Z,22.45
2023-04-18T01:49:29.037Z,22.42
2023-04-18T01:51:57.009Z,22.59
2023-04-18T01:54:24.973Z,22.51
2023-04-18T01:56:54.080Z,22.21
2023-04-18T01:59:22.462Z,22.16
2023-04-18T02:01:50.560Z,22.12
2023-04-18T02:04:19.026Z,22.21
2023-04-18T02:06:47.591Z,22.11
2023-04-18T02:09:16.385Z,22.25
2023-04-18T02:11:44.342Z,21.98
2023-04-18T02:14:14.127Z,22.30
2023-04-18T02:16:42.418Z,22.39
2023-04-18T02:19:10.374Z,22.33
2023-04-18T02:21:38.298Z,22.42
2023-04-18T02:24:06.485Z,22.44
2023-04-18T02:26:34.469Z,22.40
2023-04-18T02:29:02.562Z,22.28
2023-04-18T02:31:30.641Z,22.33
2023-04-18T02:33:58.916Z,22.50
2023-04-18T02:36:28.211Z,22.41
2023-04-18T02:38:56.109Z,22.33
2023-04-18T02:41:24.144Z,22.47
2023-04-18T02:43:52.048Z,22.42
2023-04-18T02:46:20.474Z,22.49
2023-04-18T02:48:49.430Z,22.36
2023-04-18T02:51:19.984Z,22.51
2023-04-18T02:53:48.531Z,22.79
2023-04-18T02:56:17.275Z,22.68
2023-04-18T02:59:05.556Z,22.72
2023-04-18T03:01:45.398Z,22.54
2023-04-18T03:04:16.510Z,22.79
2023-04-18T03:06:50.209Z,22.89
2023-04-18T03:09:18.878Z,22.78
2023-04-18T03:11:50.572Z,22.35
2023-04-18T03:14:19.182Z,22.51
2023-04-18T03:16:53.806Z,22.50
2023-04-18T03:19:25.875Z,22.49
2023-04-18T03:21:54.350Z,22.60
2023-04-18T03:24:23.448Z,22.52
2023-04-18T03:26:52.632Z,22.57
2023-04-18T03:29:22.332Z,22.67
2023-04-18T03:31:50.418Z,22.46
2023-04-18T03:34:18.340Z,22.29
2023-04-18T03:36:48.010Z,22.42
2023-04-18T03:39:16.467Z,22.51
2023-04-18T03:41:45.164Z,22.51
2023-04-18T03:44:13.685Z,22.39
2023-04-18T03:46:42.130Z,22.48
2023-04-18T03:49:10.450Z,22.54
2023-04-18T03:51:43.644Z,22.68
2023-04-18T03:54:11.942Z,22.71
2023-04-18T03:56:40.296Z,22.69
2023-04-18T03:59:08.719Z,22.61
2023-04-18T04:01:37.198Z,22.73
2023-04-18T04:04:05.366Z,22.69
2023-04-18T04:06:33.989Z,22.49
2023-04-18T04:09:01.946Z,22.63
2023-04-18T04:11:30.206Z,22.74
2023-04-18T04:13:58.258Z,22.91
2023-04-18T04:16:30.903Z,23.18
2023-04-18T04:18:58.933Z,23.33
2023-04-18T04:21:32.463Z,22.98
2023-04-18T04:24:01.613Z,23.26
2023-04-18T04:26:38.729Z,23.52
2023-04-18T04:29:13.910Z,23.75
2023-04-18T04:31:42.495Z,24.16
2023-04-18T04:34:10.444Z,24.24
2023-04-18T04:36:41.287Z,24.37
2023-04-18T04:39:11.303Z,24.23
2023-04-18T04:41:58.055Z,24.56
2023-04-18T04:44:26.895Z,24.91
2023-04-18T04:46:56.041Z,24.88
2023-04-18T04:49:26.915Z,24.86
2023-04-18T04:51:54.774Z,25.01
2023-04-18T04:54:23.121Z,25.12
2023-04-18T04:56:51.803Z,25.30
2023-04-18T04:59:20.765Z,25.66
2023-04-18T05:01:48.931Z,25.74
2023-04-18T05:04:17.336Z,25.89
2023-04-18T05:06:46.487Z,25.98
2023-04-18T05:09:14.393Z,26.15
2023-04-18T05:11:42.405Z,26.23
2023-04-18T05:14:10.402Z,26.23
2023-04-18T05:16:38.340Z,26.18
2023-04-18T05:19:06.273Z,26.57
2023-04-18T05:21:34.797Z,26.80
2023-04-18T05:24:02.770Z,26.75
2023-04-18T05:26:30.838Z,26.56
2023-04-18T05:28:58.683Z,26.62
2023-04-18T05:31:26.961Z,26.57
2023-04-18T05:33:54.930Z,26.83
2023-04-18T05:36:22.929Z,26.77
2023-04-18T05:38:53.820Z,26.44
2023-04-18T05:41:21.698Z,26.18
2023-04-18T05:43:58.205Z,26.43
2023-04-18T05:46:32.960Z,26.70
2023-04-18T05:49:01.337Z,26.03
2023-04-18T05:51:29.487Z,26.39
2023-04-18T05:53:57.429Z,27.00
2023-04-18T05:56:25.331Z,27.58
2023-04-18T05:58:53.196Z,28.02
2023-04-18T06:01:21.568Z,28.40
2023-04-18T06:03:49.720Z,28.89
2023-04-18T06:06:18.151Z,29.24
2023-04-18T06:08:46.589Z,29.33
2023-04-18T06:11:15.474Z,29.49
2023-04-18T06:13:43.389Z,29.34
2023-04-18T06:16:12.087Z,29.00
2023-04-18T06:18:40.119Z,28.77
2023-04-18T06:21:08.122Z,28.77
2023-04-18T06:23:36.122Z,29.06
2023-04-18T06:26:04.066Z,29.15
2023-04-18T06:28:33.316Z,28.46
2023-04-18T06:31:01.221Z,28.21
2023-04-18T06:33:33.442Z,28.00
2023-04-18T06:36:01.646Z,27.71
2023-04-18T06:38:30.036Z,27.38
2023-04-18T06:40:57.953Z,27.37
2023-04-18T06:43:26.279Z,27.74
2023-04-18T06:45:54.679Z,27.76
2023-04-18T06:48:22.866Z,27.40
2023-04-18T06:50:50.860Z,27.18
2023-04-18T06:53:18.926Z,27.02
2023-04-18T06:55:46.783Z,26.83
2023-04-18T06:58:16.306Z,26.76
2023-04-18T07:00:44.432Z,26.66
2023-04-18T07:03:13.675Z,26.46
2023-04-18T07:05:41.847Z,26.43
2023-04-18T07:08:09.721Z,26.34
2023-04-18T07:10:37.603Z,26.02
2023-04-18T07:13:06.154Z,26.18
2023-04-18T07:15:37.139Z,26.35
2023-04-18T07:18:05.252Z,26.43
2023-04-18T07:20:33.183Z,26.47
2023-04-18T07:23:01.229Z,26.91
2023-04-18T07:25:29.387Z,27.46
2023-04-18T07:27:57.274Z,27.52
2023-04-18T07:30:25.237Z,27.44
2023-04-18T07:32:53.383Z,27.93
2023-04-18T07:35:21.955Z,28.25
2023-04-18T07:37:49.877Z,28.69
2023-04-18T07:40:18.061Z,28.14
2023-04-18T07:42:46.206Z,28.44
2023-04-18T07:45:15.485Z,29.26
2023-04-18T07:47:43.433Z,29.49
2023-04-18T07:50:11.841Z,29.43
2023-04-18T07:52:39.906Z,29.11
2023-04-18T07:55:08.493Z,29.11
2023-04-18T07:57:37.037Z,29.41
2023-04-18T08:00:06.509Z,29.50
2023-04-18T08:02:41.762Z,30.15
2023-04-18T08:05:10.464Z,30.19
2023-04-18T08:07:38.912Z,30.34
2023-04-18T08:10:07.414Z,30.35
2023-04-18T08:12:36.800Z,30.92
2023-04-18T08:15:05.209Z,30.96
2023-04-18T08:17:38.890Z,30.99
2023-04-18T08:20:07.351Z,31.02
2023-04-18T08:22:44.080Z,30.93
2023-04-18T08:25:18.406Z,30.82
2023-04-18T08:27:46.457Z,30.62
2023-04-18T08:30:14.449Z,30.71
2023-04-18T08:32:42.336Z,31.08
2023-04-18T08:35:10.273Z,31.24
2023-04-18T08:37:38.266Z,30.68
2023-04-18T08:40:07.501Z,30.79
2023-04-18T08:42:36.032Z,30.70
2023-04-18T08:45:05.747Z,30.49
2023-04-18T08:47:35.391Z,30.80
2023-04-18T08:50:03.503Z,30.67
2023-04-18T08:52:32.004Z,30.69
2023-04-18T08:55:02.750Z,30.36
2023-04-18T08:57:31.800Z,30.49
2023-04-18T09:00:05.780Z,30.79
2023-04-18T09:02:42.607Z,30.65
2023-04-18T09:05:14.996Z,30.38
2023-04-18T09:07:43.219Z,30.43
2023-04-18T09:10:11.251Z,30.17
2023-04-18T09:12:52.373Z,29.94
2023-04-18T09:15:23.594Z,30.12
2023-04-18T09:17:56.483Z,30.01
2023-04-18T09:20:43.685Z,29.84
2023-04-18T09:23:14.896Z,29.68
2023-04-18T09:25:45.069Z,29.48
2023-04-18T09:28:33.263Z,29.66
2023-04-18T09:31:11.991Z,29.77
2023-04-18T09:33:44.818Z,29.82
2023-04-18T09:36:17.881Z,29.98
2023-04-18T09:38:46.720Z,30.09
2023-04-18T09:41:21.243Z,30.34
2023-04-18T09:43:49.643Z,30.43
2023-04-18T09:46:18.061Z,30.55
2023-04-18T09:48:46.272Z,30.44
2023-04-18T09:51:15.038Z,30.64
2023-04-18T09:53:50.409Z,30.81
2023-04-18T09:56:26.263Z,30.09
2023-04-18T09:59:08.611Z,30.10
2023-04-18T10:01:36.897Z,29.83
2023-04-18T10:04:06.883Z,30.08
2023-04-18T10:06:38.563Z,30.23
2023-04-18T10:09:07.718Z,30.47
2023-04-18T10:11:36.481Z,31.02
2023-04-18T10:14:09.851Z,30.56
2023-04-18T10:16:38.120Z,30.11
2023-04-18T10:19:26.174Z,30.91
2023-04-18T10:21:55.142Z,29.49
2023-04-18T10:24:45.161Z,29.52
2023-04-18T10:27:13.374Z,29.98
2023-04-18T10:29:51.375Z,29.92
2023-04-18T10:32:20.535Z,30.41
2023-04-18T10:34:49.303Z,30.55
2023-04-18T10:37:19.062Z,30.48
2023-04-18T10:39:52.294Z,30.44
2023-04-18T10:42:20.772Z,30.32
2023-04-18T10:45:17.045Z,30.25
2023-04-18T10:47:45.073Z,30.61
2023-04-18T10:50:13.310Z,30.11
2023-04-18T10:52:41.838Z,29.88
2023-04-18T10:55:28.881Z,29.75
2023-04-18T10:57:56.935Z,30.13
2023-04-18T11:00:24.998Z,30.00
2023-04-18T11:02:55.974Z,29.88
2023-04-18T11:05:28.231Z,30.27
2023-04-18T11:07:56.199Z,30.25
2023-04-18T11:10:26.478Z,30.31
2023-04-18T11:12:54.956Z,30.50
2023-04-18T11:15:23.881Z,30.06
2023-04-18T11:17:56.966Z,29.74
2023-04-18T11:20:25.711Z,29.56
2023-04-18T11:22:57.717Z,29.80
2023-04-18T11:25:28.149Z,29.67
2023-04-18T11:27:58.880Z,29.50
2023-04-18T11:30:27.422Z,29.66
2023-04-18T11:32:56.101Z,29.77
2023-04-18T11:35:24.222Z,29.85
2023-04-18T11:37:52.301Z,30.04
2023-04-18T11:40:21.889Z,30.07
2023-04-18T11:42:49.912Z,30.06
2023-04-18T11:45:17.935Z,29.25
2023-04-18T11:47:46.563Z,29.15
2023-04-18T11:50:14.498Z,29.62
2023-04-18T11:52:42.874Z,29.46
2023-04-18T11:55:25.005Z,29.35
2023-04-18T11:57:53.787Z,29.44
2023-04-18T12:00:38.702Z,29.41
2023-04-18T12:03:12.563Z,29.42
2023-04-18T12:05:42.394Z,28.67
2023-04-18T12:08:14.186Z,29.20
2023-04-18T12:12:03.958Z,26.05
2023-04-18T12:14:32.422Z,28.56
2023-04-18T12:17:03.325Z,28.74
2023-04-18T12:19:32.993Z,28.34
2023-04-18T12:22:02.147Z,28.35
2023-04-18T12:24:30.389Z,28.36
2023-04-18T12:26:59.020Z,28.51
2023-04-18T12:29:27.548Z,28.40
2023-04-18T12:31:55.693Z,28.57
2023-04-18T12:34:23.790Z,28.71
2023-04-18T12:36:52.398Z,28.72
2023-04-18T12:39:20.665Z,28.78
2023-04-18T12:41:49.792Z,28.80
2023-04-18T12:44:18.356Z,28.56
2023-04-18T12:46:46.545Z,28.26
2023-04-18T12:49:14.478Z,28.32
2023-04-18T12:51:43.576Z,28.45
2023-04-18T12:54:11.588Z,28.20
2023-04-18T12:56:39.701Z,28.23
2023-04-18T12:59:07.601Z,28.13
2023-04-18T13:01:35.852Z,28.19
2023-04-18T13:04:11.997Z,28.07
2023-04-18T13:06:41.598Z,27.71
2023-04-18T13:09:10.339Z,27.99
2023-04-18T13:11:38.861Z,28.35
2023-04-18T13:14:07.106Z,28.67
2023-04-18T13:16:35.797Z,28.63
2023-04-18T13:19:03.709Z,28.34
2023-04-18T13:21:31.800Z,28.25
2023-04-18T13:23:59.796Z,28.17
2023-04-18T13:26:27.844Z,27.42
2023-04-18T13:28:55.926Z,27.38
2023-04-18T13:31:24.072Z,27.59
2023-04-18T13:33:52.591Z,26.99
2023-04-18T13:36:20.744Z,27.03
2023-04-18T13:38:49.907Z,27.51
2023-04-18T13:41:17.898Z,27.76
2023-04-18T13:43:45.825Z,27.75
2023-04-18T13:46:13.985Z,28.33
2023-04-18T13:48:42.152Z,28.50
2023-04-18T13:51:10.078Z,28.07
2023-04-18T13:53:39.535Z,27.94
2023-04-18T13:56:07.897Z,28.05
2023-04-18T13:58:36.467Z,28.04
2023-04-18T14:01:04.422Z,28.03
2023-04-18T14:03:34.043Z,27.51
2023-04-18T14:06:03.498Z,27.56
2023-04-18T14:08:31.686Z,27.22
2023-04-18T14:10:59.628Z,27.36
2023-04-18T14:13:27.569Z,27.81
2023-04-18T14:15:55.513Z,27.82
2023-04-18T14:18:24.724Z,27.80
2023-04-18T14:20:52.670Z,27.62
2023-04-18T14:23:22.505Z,27.56
2023-04-18T14:25:50.726Z,26.90
2023-04-18T14:28:23.667Z,26.70
2023-04-18T14:30:52.465Z,27.02
2023-04-18T14:33:20.847Z,26.82
2023-04-18T14:35:49.113Z,27.16
2023-04-18T14:38:17.071Z,27.08
2023-04-18T14:40:45.324Z,27.36
2023-04-18T14:43:14.018Z,27.50
2023-04-18T14:45:41.968Z,27.31
2023-04-18T14:48:10.377Z,27.42
2023-04-18T14:50:38.904Z,27.59
2023-04-18T14:53:07.087Z,27.55
2023-04-18T14:55:35.121Z,27.86
2023-04-18T14:58:03.050Z,28.08
2023-04-18T15:00:34.095Z,28.19
2023-04-18T15:03:02.187Z,28.14
2023-04-18T15:05:30.406Z,27.91
2023-04-18T15:07:58.569Z,27.82
2023-04-18T15:10:26.533Z,27.92
2023-04-18T15:12:54.470Z,28.11
2023-04-18T15:15:22.759Z,27.86
2023-04-18T15:17:50.733Z,27.50
2023-04-18T15:20:18.971Z,27.26
2023-04-18T15:22:46.940Z,27.08
2023-04-18T15:25:16.602Z,27.38
2023-04-18T15:27:44.535Z,27.02
2023-04-18T15:30:12.986Z,26.66
2023-04-18T15:32:42.258Z,26.25
2023-04-18T15:35:10.571Z,26.63
2023-04-18T15:37:38.638Z,26.22
2023-04-18T15:40:09.619Z,26.32
2023-04-18T15:42:37.665Z,27.10
2023-04-18T15:45:06.619Z,26.41
2023-04-18T15:47:34.745Z,26.54
2023-04-18T15:50:03.534Z,27.35
2023-04-18T15:52:31.529Z,27.58
2023-04-18T15:55:00.334Z,27.57
2023-04-18T15:57:29.838Z,27.32
2023-04-18T15:59:59.584Z,27.37
2023-04-18T16:02:27.747Z,27.19
2023-04-18T16:04:55.786Z,27.08
2023-04-18T16:07:23.711Z,27.57
2023-04-18T16:09:51.696Z,27.38
2023-04-18T16:12:19.639Z,27.38
2023-04-18T16:14:47.786Z,27.26
2023-04-18T16:17:15.755Z,26.77
2023-04-18T16:19:43.923Z,26.70
2023-04-18T16:22:13.633Z,26.96
2023-04-18T16:24:42.271Z,26.82
2023-04-18T16:27:10.444Z,27.00
2023-04-18T16:29:38.400Z,26.89
2023-04-18T16:32:06.874Z,26.68
2023-04-18T16:34:35.843Z,26.78
2023-04-18T16:37:03.798Z,26.99
2023-04-18T16:39:31.875Z,27.09
2023-04-18T16:41:59.846Z,26.98
2023-04-18T16:44:27.823Z,26.86
2023-04-18T16:46:56.154Z,26.77
2023-04-18T16:49:24.228Z,26.77
2023-04-18T16:51:52.197Z,26.85
2023-04-18T16:54:20.223Z,27.12
2023-04-18T16:56:48.482Z,27.05
2023-04-18T16:59:17.738Z,26.68
2023-04-18T17:01:45.976Z,26.71
2023-04-18T17:04:15.438Z,26.72
2023-04-18T17:06:43.924Z,27.03
2023-04-18T17:09:14.831Z,27.42
2023-04-18T17:11:42.989Z,27.60
2023-04-18T17:14:11.557Z,27.23
2023-04-18T17:16:40.479Z,27.20
2023-04-18T17:19:09.158Z,26.74
2023-04-18T17:21:37.157Z,26.81
2023-04-18T17:24:06.954Z,26.63
2023-04-18T17:26:35.791Z,26.71
2023-04-18T17:29:04.496Z,27.13
2023-04-18T17:31:32.708Z,26.62
2023-04-18T17:34:00.943Z,25.92
2023-04-18T17:36:28.936Z,26.17
2023-04-18T17:38:59.012Z,26.18
2023-04-18T17:41:28.655Z,26.07
2023-04-18T17:43:58.121Z,25.97
2023-04-18T17:46:26.577Z,23.46
2023-04-18T17:48:54.456Z,22.73
2023-04-18T17:51:23.657Z,22.75
2023-04-18T17:53:51.696Z,22.92
2023-04-18T17:56:19.732Z,23.28
2023-04-18T17:58:47.774Z,23.34
2023-04-18T18:01:20.039Z,23.67
2023-04-18T18:03:48.390Z,23.85
2023-04-18T18:06:16.601Z,23.98
2023-04-18T18:08:44.581Z,23.84
2023-04-18T18:11:12.708Z,23.22
2023-04-18T18:13:40.842Z,23.20
2023-04-18T18:16:09.198Z,23.39
2023-04-18T18:18:38.195Z,23.60
2023-04-18T18:21:06.296Z,23.91
2023-04-18T18:23:34.419Z,24.42
2023-04-18T18:26:02.724Z,24.83
2023-04-18T18:28:30.791Z,24.92
2023-04-18T18:30:58.922Z,24.77
2023-04-18T18:33:28.023Z,24.66
2023-04-18T18:35:58.525Z,24.60
2023-04-18T18:38:26.746Z,24.53
2023-04-18T18:40:54.630Z,24.66
2023-04-18T18:43:26.367Z,24.67
2023-04-18T18:45:54.490Z,24.85
2023-04-18T18:48:23.581Z,24.97
2023-04-18T18:50:53.873Z,24.23
2023-04-18T18:53:22.096Z,24.26
2023-04-18T18:55:50.752Z,24.41
2023-04-18T18:58:18.870Z,24.73
2023-04-18T19:00:47.136Z,25.05
2023-04-18T19:03:18.403Z,24.99
2023-04-18T19:05:46.734Z,25.21
2023-04-18T19:08:14.963Z,25.22
2023-04-18T19:10:43.338Z,25.24
2023-04-18T19:13:11.360Z,25.22
2023-04-18T19:15:39.291Z,25.21
2023-04-18T19:18:09.690Z,25.42
2023-04-18T19:20:40.331Z,25.33
2023-04-18T19:23:08.472Z,25.18
2023-04-18T19:25:38.549Z,24.89
2023-04-18T19:28:10.020Z,24.71
2023-04-18T19:30:38.076Z,24.73
2023-04-18T19:33:06.172Z,24.95
2023-04-18T19:35:35.887Z,24.64
2023-04-18T19:38:05.727Z,24.96
2023-04-18T19:40:33.641Z,25.23
2023-04-18T19:43:01.572Z,24.90
2023-04-18T19:45:30.524Z,24.67
2023-04-18T19:47:58.719Z,24.94
2023-04-18T19:50:26.770Z,25.04
2023-04-18T19:52:54.802Z,24.98
2023-04-18T19:55:22.998Z,25.14
2023-04-18T19:57:54.208Z,25.06
2023-04-18T20:00:22.228Z,24.69
2023-04-18T20:02:53.644Z,23.95
2023-04-18T20:05:22.015Z,24.06
2023-04-18T20:07:50.243Z,24.24
2023-04-18T20:10:21.067Z,24.63
2023-04-18T20:12:50.140Z,24.81
2023-04-18T20:15:18.322Z,25.05
2023-04-18T20:17:48.682Z,25.25
2023-04-18T20:20:16.644Z,24.80
2023-04-18T20:22:46.999Z,24.36
2023-04-18T20:25:15.023Z,24.77
2023-04-18T20:27:43.119Z,25.00
2023-04-18T20:30:11.690Z,25.33
2023-04-18T20:32:40.649Z,24.88
2023-04-18T20:35:09.440Z,25.09
2023-04-18T20:37:37.572Z,25.37
2023-04-18T20:40:09.025Z,25.33
2023-04-18T20:42:38.678Z,24.65
2023-04-18T20:45:10.871Z,25.31
2023-04-18T20:47:41.263Z,25.45
2023-04-18T20:50:10.146Z,25.51
2023-04-18T20:52:38.491Z,25.91
2023-04-18T20:55:06.559Z,25.57
2023-04-18T20:57:35.926Z,25.32
2023-04-18T21:00:06.716Z,25.43
2023-04-18T21:02:35.039Z,25.38
2023-04-18T21:05:03.186Z,25.49
2023-04-18T21:07:32.353Z,25.71
2023-04-18T21:10:00.391Z,25.78
2023-04-18T21:12:28.471Z,25.49
2023-04-18T21:14:56.445Z,25.43
2023-04-18T21:17:27.789Z,25.49
2023-04-18T21:19:55.875Z,25.44
2023-04-18T21:22:23.833Z,25.37
2023-04-18T21:24:51.745Z,25.43
2023-04-18T21:27:19.658Z,25.24
2023-04-18T21:29:47.963Z,24.92
2023-04-18T21:32:15.932Z,24.73
2023-04-18T21:34:45.728Z,24.60
2023-04-18T21:37:13.660Z,24.58
2023-04-18T21:39:42.586Z,24.91
2023-04-18T21:42:10.926Z,25.11
2023-04-18T21:44:38.783Z,25.26
2023-04-18T21:47:06.704Z,25.24
2023-04-18T21:49:35.062Z,25.30
2023-04-18T21:52:03.003Z,25.20
2023-04-18T21:54:31.139Z,25.05
2023-04-18T21:56:59.104Z,25.10
2023-04-18T21:59:30.656Z,24.92
2023-04-18T22:01:59.824Z,25.16
2023-04-18T22:04:31.464Z,25.10
2023-04-18T22:06:59.415Z,24.92
2023-04-18T22:09:27.277Z,24.97
2023-04-18T22:11:56.960Z,24.83
2023-04-18T22:14:25.011Z,24.87
2023-04-18T22:16:54.095Z,24.61
2023-04-18T22:19:22.314Z,24.55
2023-04-18T22:21:50.459Z,24.79
2023-04-18T22:24:19.690Z,25.08
2023-04-18T22:26:47.973Z,25.19
2023-04-18T22:29:16.035Z,25.07
2023-04-18T22:31:45.321Z,25.22
2023-04-18T22:34:13.785Z,25.24
2023-04-18T22:36:42.922Z,24.69
2023-04-18T22:39:12.254Z,24.97
2023-04-18T22:41:40.497Z,25.23
2023-04-18T22:44:08.433Z,24.96
2023-04-18T22:46:39.303Z,24.91
2023-04-18T22:49:07.513Z,24.68
2023-04-18T22:51:35.726Z,24.61
2023-04-18T22:54:03.749Z,24.85
2023-04-18T22:56:31.894Z,24.76
2023-04-18T22:59:00.046Z,24.86
2023-04-18T23:01:28.353Z,24.66
2023-04-18T23:03:56.813Z,24.81
2023-04-18T23:06:24.991Z,24.31
2023-04-18T23:08:53.050Z,23.25
2023-04-18T23:11:21.595Z,23.83
2023-04-18T23:13:49.677Z,23.91
2023-04-18T23:16:17.642Z,23.89
2023-04-18T23:18:45.698Z,24.32
2023-04-18T23:21:13.564Z,24.22
2023-04-18T23:23:41.544Z,23.92
2023-04-18T23:26:15.986Z,23.13
2023-04-18T23:28:44.345Z,22.92
2023-04-18T23:31:12.717Z,22.86
2023-04-18T23:33:40.902Z,23.27
2023-04-18T23:36:09.153Z,24.12
2023-04-18T23:38:38.410Z,24.39
2023-04-18T23:41:06.501Z,24.21
2023-04-18T23:43:35.485Z,24.29
2023-04-18T23:46:04.064Z,24.06
2023-04-18T23:48:32.324Z,23.96
2023-04-18T23:51:00.979Z,24.07
2023-04-18T23:53:29.116Z,24.15
2023-04-18T23:55:57.021Z,24.51
2023-04-18T23:58:26.463Z,24.56
